Estación Meteorológica Peña el Pijo (Robertgarden) [ 01/30/23 14:54:00 CET ]

Fecha Hora Presion(HPa) Temp (°C) Humedad % Rocio (°C) Viento ( m/s) Direccion Lluvia 1Hora(mm) Lluvia 24H(mm) LLuvia Total(mm)
2010-Jan-03 01:01:13 1011.000 1.1 87 -0.9         61.12
2010-Jan-03 02:03:12 1010.500 0.7 88 -1.1         61.12
2010-Jan-03 03:01:14 1010.300 -0.1 88 -1.8         61.12
2010-Jan-03 04:01:12 1010.100 -0.1 89 -1.7         61.12
2010-Jan-03 05:01:18 1009.700 -0.4 89 -2.0         61.12
2010-Jan-03 06:01:11 1009.100 -0.7 90 -2.1         61.12
2010-Jan-03 07:01:14 1009.600 -0.9 90 -2.3         61.12
2010-Jan-03 08:01:17 1009.600 -1.0 90 -2.4         61.12
2010-Jan-03 09:01:17 1009.700 -0.7 90 -2.1         61.12
2010-Jan-03 10:01:17 1010.100 0.2 91 -1.1         61.12
2010-Jan-03 11:01:14 1010.000 2.4 88 0.6         61.12
2010-Jan-03 12:01:19 1009.200 7.2 84 4.7         61.12
2010-Jan-03 13:01:14 1008.000 13.3 49 2.8         61.12
2010-Jan-03 14:01:16 1007.100 14.2 43 1.7         61.12
2010-Jan-03 15:01:13 1006.700 13.8 45 2.0         61.12
2010-Jan-03 16:01:17 1007.100 12.8 44 0.8         61.12
2010-Jan-03 17:01:12 1007.700 10.4 55 1.7         61.12
2010-Jan-03 18:01:18 1007.500 9.8 64 3.3 2.6 SSW     61.12
2010-Jan-03 19:01:17 1008.000 9.6 68 4.0         61.12
2010-Jan-03 20:01:13 1008.300 9.3 75 5.0         61.12
2010-Jan-03 21:01:17 1008.500 8.3 83 5.6         61.12
2010-Jan-03 22:01:14 1008.200 7.8 86 5.6         61.12
2010-Jan-03 23:01:17 1007.600 7.6 88 5.8         61.12

Temperatura Máxima:14°    Temperatura Mínima:-1°
Presión Máxima:1011.000 Hpa    Presión Mínima:1006.700 Hpa


Volver